sensor_id;sensor_type;location;lat;lon;timestamp;pressure;altitude;pressure_sealevel;temperature;humidity
8051;BME280;4068;42.158;24.732;2022-08-19T00:01:54;99103.13;;;24.15;74.14
8051;BME280;4068;42.158;24.732;2022-08-19T00:04:27;99100.34;;;24.21;72.75
8051;BME280;4068;42.158;24.732;2022-08-19T00:06:53;99108.16;;;24.11;73.86
8051;BME280;4068;42.158;24.732;2022-08-19T00:09:20;99106.34;;;24.05;74.23
8051;BME280;4068;42.158;24.732;2022-08-19T00:11:46;99114.69;;;24.03;74.46
8051;BME280;4068;42.158;24.732;2022-08-19T00:14:14;99094.13;;;23.95;73.07
8051;BME280;4068;42.158;24.732;2022-08-19T00:16:41;99111.59;;;24.00;73.68
8051;BME280;4068;42.158;24.732;2022-08-19T00:19:09;99091.28;;;23.90;74.14
8051;BME280;4068;42.158;24.732;2022-08-19T00:21:34;99090.91;;;23.80;74.63
8051;BME280;4068;42.158;24.732;2022-08-19T00:24:06;99103.09;;;23.96;75.07
8051;BME280;4068;42.158;24.732;2022-08-19T00:26:32;99103.97;;;23.90;75.53
8051;BME280;4068;42.158;24.732;2022-08-19T00:28:58;99107.44;;;23.97;75.61
8051;BME280;4068;42.158;24.732;2022-08-19T00:31:25;99106.47;;;23.91;75.71
8051;BME280;4068;42.158;24.732;2022-08-19T00:33:52;99110.44;;;23.89;76.20
8051;BME280;4068;42.158;24.732;2022-08-19T00:36:17;99108.78;;;23.88;76.77
8051;BME280;4068;42.158;24.732;2022-08-19T00:38:43;99094.91;;;23.77;76.38
8051;BME280;4068;42.158;24.732;2022-08-19T00:41:20;99094.50;;;23.74;76.67
8051;BME280;4068;42.158;24.732;2022-08-19T00:46:30;99077.31;;;23.61;77.14
8051;BME280;4068;42.158;24.732;2022-08-19T00:48:56;99090.16;;;23.73;76.25
8051;BME280;4068;42.158;24.732;2022-08-19T00:51:27;99082.22;;;23.71;76.56
8051;BME280;4068;42.158;24.732;2022-08-19T00:53:55;99080.38;;;23.72;76.39
8051;BME280;4068;42.158;24.732;2022-08-19T00:56:22;99069.81;;;23.64;75.93
8051;BME280;4068;42.158;24.732;2022-08-19T00:58:48;99075.41;;;23.69;76.33
8051;BME280;4068;42.158;24.732;2022-08-19T01:01:15;99054.88;;;23.54;76.93
8051;BME280;4068;42.158;24.732;2022-08-19T01:03:40;99072.09;;;23.60;77.45
8051;BME280;4068;42.158;24.732;2022-08-19T01:06:06;99066.91;;;23.58;78.10
8051;BME280;4068;42.158;24.732;2022-08-19T01:08:33;99072.78;;;23.55;77.08
8051;BME280;4068;42.158;24.732;2022-08-19T01:10:59;99051.03;;;23.43;77.63
8051;BME280;4068;42.158;24.732;2022-08-19T01:13:30;99066.22;;;23.44;77.86
8051;BME280;4068;42.158;24.732;2022-08-19T01:16:10;99065.53;;;23.49;79.41
8051;BME280;4068;42.158;24.732;2022-08-19T01:18:40;99069.69;;;23.52;78.11
8051;BME280;4068;42.158;24.732;2022-08-19T01:21:11;99068.84;;;23.51;78.65
8051;BME280;4068;42.158;24.732;2022-08-19T01:23:40;99067.38;;;23.55;78.58
8051;BME280;4068;42.158;24.732;2022-08-19T01:26:17;99069.47;;;23.53;78.63
8051;BME280;4068;42.158;24.732;2022-08-19T01:28:44;99075.34;;;23.50;78.96
8051;BME280;4068;42.158;24.732;2022-08-19T01:31:15;99080.13;;;23.48;78.42
8051;BME280;4068;42.158;24.732;2022-08-19T01:33:41;99091.81;;;23.42;78.16
8051;BME280;4068;42.158;24.732;2022-08-19T01:36:12;99099.31;;;23.40;78.94
8051;BME280;4068;42.158;24.732;2022-08-19T01:38:41;99107.41;;;23.47;78.52
8051;BME280;4068;42.158;24.732;2022-08-19T01:41:08;99099.91;;;23.49;78.37
8051;BME280;4068;42.158;24.732;2022-08-19T01:43:34;99098.63;;;23.51;78.04
8051;BME280;4068;42.158;24.732;2022-08-19T01:45:59;99079.59;;;23.33;78.20
8051;BME280;4068;42.158;24.732;2022-08-19T01:48:26;99105.13;;;23.43;77.58
8051;BME280;4068;42.158;24.732;2022-08-19T01:50:51;99109.00;;;23.54;76.67
8051;BME280;4068;42.158;24.732;2022-08-19T01:53:17;99121.72;;;23.54;77.49
8051;BME280;4068;42.158;24.732;2022-08-19T01:55:43;99121.72;;;23.54;77.33
8051;BME280;4068;42.158;24.732;2022-08-19T01:58:29;99114.28;;;23.42;78.08
8051;BME280;4068;42.158;24.732;2022-08-19T02:00:56;99116.22;;;23.29;78.69
8051;BME280;4068;42.158;24.732;2022-08-19T02:03:22;99129.38;;;23.25;79.47
8051;BME280;4068;42.158;24.732;2022-08-19T02:05:54;99129.63;;;23.17;79.56
8051;BME280;4068;42.158;24.732;2022-08-19T02:08:19;99131.94;;;23.00;80.72
8051;BME280;4068;42.158;24.732;2022-08-19T02:10:45;99129.09;;;22.88;81.43
8051;BME280;4068;42.158;24.732;2022-08-19T02:13:12;99133.28;;;22.77;83.04
8051;BME280;4068;42.158;24.732;2022-08-19T02:15:38;99131.06;;;22.61;83.75
8051;BME280;4068;42.158;24.732;2022-08-19T02:18:04;99134.59;;;22.54;84.50
8051;BME280;4068;42.158;24.732;2022-08-19T02:20:30;99142.53;;;22.49;85.41
8051;BME280;4068;42.158;24.732;2022-08-19T02:22:55;99152.91;;;22.46;85.53
8051;BME280;4068;42.158;24.732;2022-08-19T02:25:21;99157.91;;;22.42;86.09
8051;BME280;4068;42.158;24.732;2022-08-19T02:27:46;99121.13;;;22.28;86.08
8051;BME280;4068;42.158;24.732;2022-08-19T02:30:15;99138.78;;;22.44;86.63
8051;BME280;4068;42.158;24.732;2022-08-19T02:32:41;99149.59;;;22.50;86.43
8051;BME280;4068;42.158;24.732;2022-08-19T02:35:07;99139.81;;;22.43;86.20
8051;BME280;4068;42.158;24.732;2022-08-19T02:37:33;99125.72;;;22.34;87.27
8051;BME280;4068;42.158;24.732;2022-08-19T02:40:17;99155.41;;;22.47;87.50
8051;BME280;4068;42.158;24.732;2022-08-19T02:42:43;99134.22;;;22.31;87.08
8051;BME280;4068;42.158;24.732;2022-08-19T02:45:09;99162.25;;;22.43;88.11
8051;BME280;4068;42.158;24.732;2022-08-19T02:47:35;99151.28;;;22.38;88.87
8051;BME280;4068;42.158;24.732;2022-08-19T02:50:02;99164.56;;;22.46;88.79
8051;BME280;4068;42.158;24.732;2022-08-19T02:52:27;99152.50;;;22.42;88.57
8051;BME280;4068;42.158;24.732;2022-08-19T02:54:53;99162.25;;;22.50;88.83
8051;BME280;4068;42.158;24.732;2022-08-19T02:57:20;99149.59;;;22.37;89.56
8051;BME280;4068;42.158;24.732;2022-08-19T02:59:46;99168.28;;;22.38;90.03
8051;BME280;4068;42.158;24.732;2022-08-19T03:02:11;99156.44;;;22.26;90.67
8051;BME280;4068;42.158;24.732;2022-08-19T03:04:36;99152.91;;;22.19;91.46
8051;BME280;4068;42.158;24.732;2022-08-19T03:07:02;99171.22;;;22.44;92.82
8051;BME280;4068;42.158;24.732;2022-08-19T03:09:27;99167.47;;;22.45;90.67
8051;BME280;4068;42.158;24.732;2022-08-19T03:11:54;99169.75;;;22.48;90.97
8051;BME280;4068;42.158;24.732;2022-08-19T03:14:20;99171.81;;;22.52;90.56
8051;BME280;4068;42.158;24.732;2022-08-19T03:16:49;99175.16;;;22.48;91.00
8051;BME280;4068;42.158;24.732;2022-08-19T03:19:17;99175.75;;;22.56;90.36
8051;BME280;4068;42.158;24.732;2022-08-19T03:21:43;99184.47;;;22.58;90.56
8051;BME280;4068;42.158;24.732;2022-08-19T03:24:10;99185.94;;;22.54;90.32
8051;BME280;4068;42.158;24.732;2022-08-19T03:26:44;99185.09;;;22.47;90.35
8051;BME280;4068;42.158;24.732;2022-08-19T03:29:10;99184.50;;;22.45;92.19
8051;BME280;4068;42.158;24.732;2022-08-19T03:31:38;99189.06;;;22.51;90.76
8051;BME280;4068;42.158;24.732;2022-08-19T03:34:04;99193.00;;;22.62;91.12
8051;BME280;4068;42.158;24.732;2022-08-19T03:36:29;99183.00;;;22.63;91.71
8051;BME280;4068;42.158;24.732;2022-08-19T03:38:57;99195.47;;;22.70;91.32
8051;BME280;4068;42.158;24.732;2022-08-19T03:41:25;99184.47;;;22.65;90.63
8051;BME280;4068;42.158;24.732;2022-08-19T03:43:52;99183.44;;;22.66;91.06
8051;BME280;4068;42.158;24.732;2022-08-19T03:46:23;99195.44;;;22.77;91.18
8051;BME280;4068;42.158;24.732;2022-08-19T03:48:51;99197.50;;;22.88;90.01
8051;BME280;4068;42.158;24.732;2022-08-19T03:51:28;99196.69;;;22.88;89.34
8051;BME280;4068;42.158;24.732;2022-08-19T03:53:57;99191.66;;;22.91;89.91
8051;BME280;4068;42.158;24.732;2022-08-19T03:56:23;99172.38;;;22.81;90.10
8051;BME280;4068;42.158;24.732;2022-08-19T03:58:51;99204.31;;;23.04;89.26
8051;BME280;4068;42.158;24.732;2022-08-19T04:01:19;99199.31;;;23.08;88.71
8051;BME280;4068;42.158;24.732;2022-08-19T04:03:45;99205.34;;;23.17;88.22
8051;BME280;4068;42.158;24.732;2022-08-19T04:06:20;99175.81;;;23.08;88.36
8051;BME280;4068;42.158;24.732;2022-08-19T04:08:48;99196.31;;;23.36;88.32
8051;BME280;4068;42.158;24.732;2022-08-19T04:11:15;99202.06;;;23.53;87.09
8051;BME280;4068;42.158;24.732;2022-08-19T04:13:41;99208.50;;;23.59;85.99
8051;BME280;4068;42.158;24.732;2022-08-19T04:16:09;99222.28;;;23.44;86.87
8051;BME280;4068;42.158;24.732;2022-08-19T04:18:36;99214.22;;;23.37;86.29
8051;BME280;4068;42.158;24.732;2022-08-19T04:21:02;99214.47;;;23.22;86.27
8051;BME280;4068;42.158;24.732;2022-08-19T04:23:28;99211.81;;;23.09;86.87
8051;BME280;4068;42.158;24.732;2022-08-19T04:25:54;99214.97;;;22.92;87.42
8051;BME280;4068;42.158;24.732;2022-08-19T04:28:20;99215.59;;;22.88;86.84
8051;BME280;4068;42.158;24.732;2022-08-19T04:30:49;99218.13;;;22.76;86.96
8051;BME280;4068;42.158;24.732;2022-08-19T04:33:17;99216.66;;;22.80;87.08
8051;BME280;4068;42.158;24.732;2022-08-19T04:35:46;99220.19;;;22.81;86.88
8051;BME280;4068;42.158;24.732;2022-08-19T04:38:14;99225.59;;;22.87;86.54
8051;BME280;4068;42.158;24.732;2022-08-19T04:40:43;99225.56;;;22.94;86.48
8051;BME280;4068;42.158;24.732;2022-08-19T04:43:26;99235.97;;;22.90;85.08
8051;BME280;4068;42.158;24.732;2022-08-19T04:45:52;99205.59;;;22.88;84.84
8051;BME280;4068;42.158;24.732;2022-08-19T04:48:18;99215.97;;;23.05;84.25
8051;BME280;4068;42.158;24.732;2022-08-19T04:50:51;99208.94;;;22.90;83.68
8051;BME280;4068;42.158;24.732;2022-08-19T04:53:22;99209.53;;;22.99;83.55
8051;BME280;4068;42.158;24.732;2022-08-19T04:55:47;99233.63;;;23.21;83.93
8051;BME280;4068;42.158;24.732;2022-08-19T04:58:12;99235.06;;;23.30;82.64
8051;BME280;4068;42.158;24.732;2022-08-19T05:00:39;99226.91;;;23.37;82.88
8051;BME280;4068;42.158;24.732;2022-08-19T05:03:04;99216.06;;;23.43;82.97
8051;BME280;4068;42.158;24.732;2022-08-19T05:05:30;99235.50;;;23.66;82.15
8051;BME280;4068;42.158;24.732;2022-08-19T05:07:56;99223.94;;;23.84;81.20
8051;BME280;4068;42.158;24.732;2022-08-19T05:10:22;99197.13;;;23.75;81.53
8051;BME280;4068;42.158;24.732;2022-08-19T05:12:47;99225.09;;;24.01;80.85
8051;BME280;4068;42.158;24.732;2022-08-19T05:15:13;99228.09;;;24.18;80.15
8051;BME280;4068;42.158;24.732;2022-08-19T05:17:38;99211.41;;;24.21;80.18
8051;BME280;4068;42.158;24.732;2022-08-19T05:20:24;99239.34;;;24.47;79.63
8051;BME280;4068;42.158;24.732;2022-08-19T05:23:10;99234.59;;;24.68;77.60
8051;BME280;4068;42.158;24.732;2022-08-19T05:25:39;99233.47;;;24.75;77.58
8051;BME280;4068;42.158;24.732;2022-08-19T05:28:05;99208.41;;;24.80;75.86
8051;BME280;4068;42.158;24.732;2022-08-19T05:30:30;99222.81;;;24.99;74.48
8051;BME280;4068;42.158;24.732;2022-08-19T05:32:55;99235.84;;;25.27;72.89
8051;BME280;4068;42.158;24.732;2022-08-19T05:35:21;99236.06;;;25.44;71.25
8051;BME280;4068;42.158;24.732;2022-08-19T05:37:48;99243.06;;;25.52;71.81
8051;BME280;4068;42.158;24.732;2022-08-19T05:40:14;99231.50;;;25.57;71.24
8051;BME280;4068;42.158;24.732;2022-08-19T05:42:39;99237.47;;;25.65;69.94
8051;BME280;4068;42.158;24.732;2022-08-19T05:45:06;99231.03;;;25.78;67.70
8051;BME280;4068;42.158;24.732;2022-08-19T05:47:31;99235.75;;;25.83;69.19
8051;BME280;4068;42.158;24.732;2022-08-19T05:49:57;99225.31;;;25.98;67.68
8051;BME280;4068;42.158;24.732;2022-08-19T05:52:22;99226.28;;;26.04;67.02
8051;BME280;4068;42.158;24.732;2022-08-19T05:54:48;99208.75;;;25.88;67.58
8051;BME280;4068;42.158;24.732;2022-08-19T05:57:16;99236.69;;;26.19;67.59
8051;BME280;4068;42.158;24.732;2022-08-19T05:59:41;99209.53;;;26.19;66.42
8051;BME280;4068;42.158;24.732;2022-08-19T06:02:07;99234.50;;;26.40;65.81
8051;BME280;4068;42.158;24.732;2022-08-19T06:04:33;99240.78;;;26.64;62.89
8051;BME280;4068;42.158;24.732;2022-08-19T06:06:59;99237.84;;;26.77;61.46
8051;BME280;4068;42.158;24.732;2022-08-19T06:09:26;99251.66;;;26.87;61.13
8051;BME280;4068;42.158;24.732;2022-08-19T06:11:54;99248.59;;;26.96;61.11
8051;BME280;4068;42.158;24.732;2022-08-19T06:14:27;99251.28;;;27.08;60.50
8051;BME280;4068;42.158;24.732;2022-08-19T06:16:53;99252.47;;;27.24;59.42
8051;BME280;4068;42.158;24.732;2022-08-19T06:19:20;99256.00;;;27.36;58.38
8051;BME280;4068;42.158;24.732;2022-08-19T06:21:48;99255.38;;;27.46;58.82
8051;BME280;4068;42.158;24.732;2022-08-19T06:24:17;99239.66;;;27.48;57.71
8051;BME280;4068;42.158;24.732;2022-08-19T06:26:45;99250.81;;;27.63;58.06
8051;BME280;4068;42.158;24.732;2022-08-19T06:29:13;99253.88;;;27.67;57.65
8051;BME280;4068;42.158;24.732;2022-08-19T06:31:44;99256.56;;;27.79;58.50
8051;BME280;4068;42.158;24.732;2022-08-19T06:34:11;99245.09;;;27.77;58.45
8051;BME280;4068;42.158;24.732;2022-08-19T06:36:48;99257.03;;;28.04;57.62
8051;BME280;4068;42.158;24.732;2022-08-19T06:39:20;99258.72;;;28.22;57.41
8051;BME280;4068;42.158;24.732;2022-08-19T06:41:49;99255.34;;;28.32;56.60
8051;BME280;4068;42.158;24.732;2022-08-19T06:44:15;99254.75;;;28.30;57.27
8051;BME280;4068;42.158;24.732;2022-08-19T06:46:41;99233.94;;;28.41;57.03
8051;BME280;4068;42.158;24.732;2022-08-19T06:49:07;99258.66;;;28.68;56.16
8051;BME280;4068;42.158;24.732;2022-08-19T06:51:42;99236.59;;;28.70;54.64
8051;BME280;4068;42.158;24.732;2022-08-19T06:54:08;99257.31;;;28.88;54.39
8051;BME280;4068;42.158;24.732;2022-08-19T06:56:34;99235.09;;;28.79;54.56
8051;BME280;4068;42.158;24.732;2022-08-19T06:59:29;99216.16;;;28.72;54.25
8051;BME280;4068;42.158;24.732;2022-08-19T07:01:59;99257.72;;;28.97;55.21
8051;BME280;4068;42.158;24.732;2022-08-19T07:04:28;99249.34;;;29.03;55.35
8051;BME280;4068;42.158;24.732;2022-08-19T07:07:00;99239.56;;;29.07;54.74
8051;BME280;4068;42.158;24.732;2022-08-19T07:09:27;99257.06;;;29.29;54.09
8051;BME280;4068;42.158;24.732;2022-08-19T07:11:53;99238.19;;;29.27;53.86
8051;BME280;4068;42.158;24.732;2022-08-19T07:14:22;99241.69;;;29.44;52.68
8051;BME280;4068;42.158;24.732;2022-08-19T07:16:49;99244.44;;;29.44;52.97
8051;BME280;4068;42.158;24.732;2022-08-19T07:19:16;99227.38;;;29.59;52.32
8051;BME280;4068;42.158;24.732;2022-08-19T07:21:42;99238.72;;;29.73;52.16
8051;BME280;4068;42.158;24.732;2022-08-19T07:24:08;99220.22;;;29.81;51.49
8051;BME280;4068;42.158;24.732;2022-08-19T07:26:41;99227.50;;;29.97;51.43
8051;BME280;4068;42.158;24.732;2022-08-19T07:29:08;99233.09;;;30.12;50.02
8051;BME280;4068;42.158;24.732;2022-08-19T07:31:34;99229.56;;;30.12;49.36
8051;BME280;4068;42.158;24.732;2022-08-19T07:34:05;99237.31;;;30.25;49.11
8051;BME280;4068;42.158;24.732;2022-08-19T07:36:36;99234.84;;;30.24;49.18
8051;BME280;4068;42.158;24.732;2022-08-19T07:39:06;99215.75;;;30.29;48.21
8051;BME280;4068;42.158;24.732;2022-08-19T07:41:34;99227.91;;;30.43;47.52
8051;BME280;4068;42.158;24.732;2022-08-19T07:44:00;99228.53;;;30.51;46.91
8051;BME280;4068;42.158;24.732;2022-08-19T07:46:31;99226.97;;;30.65;46.43
8051;BME280;4068;42.158;24.732;2022-08-19T07:48:57;99241.50;;;30.71;48.12
8051;BME280;4068;42.158;24.732;2022-08-19T07:51:23;99239.94;;;30.80;48.13
8051;BME280;4068;42.158;24.732;2022-08-19T07:53:49;99210.13;;;30.84;47.59
8051;BME280;4068;42.158;24.732;2022-08-19T07:56:17;99228.28;;;31.00;47.58
8051;BME280;4068;42.158;24.732;2022-08-19T07:58:45;99224.50;;;31.06;47.56
8051;BME280;4068;42.158;24.732;2022-08-19T08:01:17;99215.19;;;31.07;47.74
8051;BME280;4068;42.158;24.732;2022-08-19T08:03:44;99221.78;;;31.17;47.04
8051;BME280;4068;42.158;24.732;2022-08-19T08:06:28;99222.63;;;31.22;46.99
8051;BME280;4068;42.158;24.732;2022-08-19T08:09:13;99214.16;;;31.19;47.02
8051;BME280;4068;42.158;24.732;2022-08-19T08:11:53;99217.13;;;31.12;47.30
8051;BME280;4068;42.158;24.732;2022-08-19T08:14:25;99234.75;;;31.37;47.47
8051;BME280;4068;42.158;24.732;2022-08-19T08:16:51;99235.63;;;31.53;45.38
8051;BME280;4068;42.158;24.732;2022-08-19T08:19:22;99205.75;;;31.46;44.88
8051;BME280;4068;42.158;24.732;2022-08-19T08:21:48;99225.56;;;31.69;44.70
8051;BME280;4068;42.158;24.732;2022-08-19T08:24:15;99222.84;;;31.84;44.17
8051;BME280;4068;42.158;24.732;2022-08-19T08:26:41;99216.00;;;31.92;44.75
8051;BME280;4068;42.158;24.732;2022-08-19T08:29:07;99223.97;;;32.09;43.70
8051;BME280;4068;42.158;24.732;2022-08-19T08:31:35;99210.50;;;32.02;43.19
8051;BME280;4068;42.158;24.732;2022-08-19T08:34:01;99223.72;;;32.15;42.87
8051;BME280;4068;42.158;24.732;2022-08-19T08:36:26;99212.75;;;32.15;42.13
8051;BME280;4068;42.158;24.732;2022-08-19T08:38:52;99212.75;;;32.21;42.54
8051;BME280;4068;42.158;24.732;2022-08-19T08:44:03;99202.03;;;32.40;43.67
8051;BME280;4068;42.158;24.732;2022-08-19T08:46:54;99201.19;;;32.60;43.78
8051;BME280;4068;42.158;24.732;2022-08-19T08:52:13;99193.19;;;32.79;42.29
8051;BME280;4068;42.158;24.732;2022-08-19T08:54:43;99171.78;;;32.76;42.33
8051;BME280;4068;42.158;24.732;2022-08-19T08:57:23;99196.06;;;33.13;41.94
8051;BME280;4068;42.158;24.732;2022-08-19T08:59:54;99190.84;;;33.27;41.73
8051;BME280;4068;42.158;24.732;2022-08-19T09:02:22;99189.97;;;33.32;41.95
8051;BME280;4068;42.158;24.732;2022-08-19T09:04:47;99198.94;;;33.53;40.71
8051;BME280;4068;42.158;24.732;2022-08-19T09:09:50;99183.00;;;33.55;39.81
8051;BME280;4068;42.158;24.732;2022-08-19T09:15:08;99190.31;;;33.65;39.82
8051;BME280;4068;42.158;24.732;2022-08-19T09:17:35;99181.75;;;33.71;39.24
8051;BME280;4068;42.158;24.732;2022-08-19T09:20:05;99168.53;;;33.84;38.72
8051;BME280;4068;42.158;24.732;2022-08-19T09:22:39;99179.22;;;33.85;39.08
8051;BME280;4068;42.158;24.732;2022-08-19T09:25:07;99175.66;;;33.85;38.76
8051;BME280;4068;42.158;24.732;2022-08-19T09:27:32;99164.94;;;33.83;38.55
8051;BME280;4068;42.158;24.732;2022-08-19T09:29:58;99169.66;;;33.78;38.49
8051;BME280;4068;42.158;24.732;2022-08-19T09:32:24;99159.59;;;33.97;39.31
8051;BME280;4068;42.158;24.732;2022-08-19T09:34:52;99150.72;;;34.05;39.20
8051;BME280;4068;42.158;24.732;2022-08-19T09:37:23;99141.56;;;34.15;38.51
8051;BME280;4068;42.158;24.732;2022-08-19T09:39:50;99161.41;;;34.42;38.29
8051;BME280;4068;42.158;24.732;2022-08-19T09:42:15;99158.78;;;34.55;38.14
8051;BME280;4068;42.158;24.732;2022-08-19T09:44:41;99156.69;;;34.71;37.26
8051;BME280;4068;42.158;24.732;2022-08-19T09:47:08;99150.72;;;34.64;36.48
8051;BME280;4068;42.158;24.732;2022-08-19T09:49:34;99155.78;;;34.52;35.91
8051;BME280;4068;42.158;24.732;2022-08-19T09:52:00;99147.56;;;34.22;36.17
8051;BME280;4068;42.158;24.732;2022-08-19T09:54:26;99152.25;;;34.22;36.82
8051;BME280;4068;42.158;24.732;2022-08-19T09:56:55;99133.72;;;34.33;37.21
8051;BME280;4068;42.158;24.732;2022-08-19T09:59:23;99147.31;;;34.48;35.96
8051;BME280;4068;42.158;24.732;2022-08-19T10:01:49;99138.59;;;34.65;35.89
8051;BME280;4068;42.158;24.732;2022-08-19T10:04:15;99133.56;;;34.72;34.77
8051;BME280;4068;42.158;24.732;2022-08-19T10:06:40;99144.41;;;34.88;34.44
8051;BME280;4068;42.158;24.732;2022-08-19T10:09:09;99137.88;;;35.03;35.25
8051;BME280;4068;42.158;24.732;2022-08-19T10:11:36;99134.59;;;35.20;33.53
8051;BME280;4068;42.158;24.732;2022-08-19T10:14:05;99123.94;;;35.13;33.46
8051;BME280;4068;42.158;24.732;2022-08-19T10:16:36;99129.25;;;35.29;34.24
8051;BME280;4068;42.158;24.732;2022-08-19T10:19:02;99106.00;;;35.16;34.04
8051;BME280;4068;42.158;24.732;2022-08-19T10:21:30;99116.31;;;35.29;33.42
8051;BME280;4068;42.158;24.732;2022-08-19T10:23:59;99106.47;;;35.23;32.58
8051;BME280;4068;42.158;24.732;2022-08-19T10:26:28;99122.78;;;35.38;32.92
8051;BME280;4068;42.158;24.732;2022-08-19T10:28:55;99117.34;;;35.52;32.74
8051;BME280;4068;42.158;24.732;2022-08-19T10:31:23;99115.75;;;35.32;32.90
8051;BME280;4068;42.158;24.732;2022-08-19T10:33:50;99108.56;;;35.31;32.17
8051;BME280;4068;42.158;24.732;2022-08-19T10:36:22;99095.16;;;35.05;32.42
8051;BME280;4068;42.158;24.732;2022-08-19T10:38:50;99104.31;;;35.01;33.50
8051;BME280;4068;42.158;24.732;2022-08-19T10:41:20;99109.47;;;35.07;33.05
8051;BME280;4068;42.158;24.732;2022-08-19T10:43:47;99097.63;;;35.26;32.86
8051;BME280;4068;42.158;24.732;2022-08-19T10:46:20;99102.00;;;35.27;32.70
8051;BME280;4068;42.158;24.732;2022-08-19T10:48:47;99100.44;;;35.21;32.01
8051;BME280;4068;42.158;24.732;2022-08-19T10:51:13;99098.88;;;35.15;32.17
8051;BME280;4068;42.158;24.732;2022-08-19T10:53:57;99081.06;;;35.07;32.64
8051;BME280;4068;42.158;24.732;2022-08-19T10:56:23;99098.06;;;35.52;32.19
8051;BME280;4068;42.158;24.732;2022-08-19T10:59:07;99104.66;;;35.89;31.32
8051;BME280;4068;42.158;24.732;2022-08-19T11:01:33;99103.41;;;35.96;31.29
8051;BME280;4068;42.158;24.732;2022-08-19T11:04:03;99094.88;;;36.11;31.07
8051;BME280;4068;42.158;24.732;2022-08-19T11:06:31;99081.41;;;36.23;30.92
8051;BME280;4068;42.158;24.732;2022-08-19T11:08:56;99068.28;;;36.01;29.82
8051;BME280;4068;42.158;24.732;2022-08-19T11:11:22;99058.66;;;35.99;30.00
8051;BME280;4068;42.158;24.732;2022-08-19T11:13:48;99080.78;;;36.26;29.59
8051;BME280;4068;42.158;24.732;2022-08-19T11:16:25;99056.19;;;36.30;29.29
8051;BME280;4068;42.158;24.732;2022-08-19T11:18:54;99074.56;;;36.62;28.37
8051;BME280;4068;42.158;24.732;2022-08-19T11:21:34;99063.22;;;36.64;28.86
8051;BME280;4068;42.158;24.732;2022-08-19T11:24:05;99069.47;;;36.56;29.07
8051;BME280;4068;42.158;24.732;2022-08-19T11:26:32;99063.34;;;36.59;29.39
8051;BME280;4068;42.158;24.732;2022-08-19T11:28:59;99059.75;;;36.58;29.03
8051;BME280;4068;42.158;24.732;2022-08-19T11:31:28;99061.56;;;36.77;29.73
8051;BME280;4068;42.158;24.732;2022-08-19T11:33:56;99038.03;;;36.66;29.67
8051;BME280;4068;42.158;24.732;2022-08-19T11:36:22;99056.44;;;36.98;29.06
8051;BME280;4068;42.158;24.732;2022-08-19T11:38:49;99057.41;;;37.16;28.61
8051;BME280;4068;42.158;24.732;2022-08-19T11:41:16;99045.34;;;37.12;29.08
8051;BME280;4068;42.158;24.732;2022-08-19T11:43:41;99054.09;;;37.28;29.20
8051;BME280;4068;42.158;24.732;2022-08-19T11:46:10;99055.31;;;37.36;28.65
8051;BME280;4068;42.158;24.732;2022-08-19T11:48:36;99057.94;;;37.41;29.32
8051;BME280;4068;42.158;24.732;2022-08-19T11:51:05;99027.56;;;37.50;28.29
8051;BME280;4068;42.158;24.732;2022-08-19T11:53:35;99046.19;;;37.58;29.16
8051;BME280;4068;42.158;24.732;2022-08-19T11:56:02;99024.50;;;37.51;28.44
8051;BME280;4068;42.158;24.732;2022-08-19T11:58:28;99020.81;;;37.56;29.02
8051;BME280;4068;42.158;24.732;2022-08-19T12:00:54;99021.66;;;37.65;28.30
8051;BME280;4068;42.158;24.732;2022-08-19T12:03:20;99030.22;;;37.77;28.54
8051;BME280;4068;42.158;24.732;2022-08-19T12:05:46;99029.97;;;37.96;28.33
8051;BME280;4068;42.158;24.732;2022-08-19T12:08:12;99029.00;;;38.01;28.16
8051;BME280;4068;42.158;24.732;2022-08-19T12:10:41;99026.19;;;37.84;28.08
8051;BME280;4068;42.158;24.732;2022-08-19T12:13:08;99028.81;;;37.89;27.99
8051;BME280;4068;42.158;24.732;2022-08-19T12:15:38;99020.03;;;37.95;28.19
8051;BME280;4068;42.158;24.732;2022-08-19T12:18:05;99004.38;;;37.82;28.56
8051;BME280;4068;42.158;24.732;2022-08-19T12:20:34;99018.41;;;37.86;28.28
8051;BME280;4068;42.158;24.732;2022-08-19T12:23:00;99017.03;;;37.74;28.51
8051;BME280;4068;42.158;24.732;2022-08-19T12:25:26;98996.03;;;37.51;28.41
8051;BME280;4068;42.158;24.732;2022-08-19T12:27:51;99013.56;;;37.69;28.24
8051;BME280;4068;42.158;24.732;2022-08-19T12:30:16;99005.09;;;37.42;28.17
8051;BME280;4068;42.158;24.732;2022-08-19T12:32:42;99001.53;;;37.42;28.28
8051;BME280;4068;42.158;24.732;2022-08-19T12:35:08;98996.13;;;37.37;28.42
8051;BME280;4068;42.158;24.732;2022-08-19T12:37:35;98984.63;;;37.43;28.08
8051;BME280;4068;42.158;24.732;2022-08-19T12:40:00;98982.81;;;37.39;28.21
8051;BME280;4068;42.158;24.732;2022-08-19T12:42:26;99004.56;;;37.32;28.13
8051;BME280;4068;42.158;24.732;2022-08-19T12:44:51;98996.34;;;37.04;27.69
8051;BME280;4068;42.158;24.732;2022-08-19T12:47:17;98978.91;;;36.94;28.15
8051;BME280;4068;42.158;24.732;2022-08-19T12:49:43;98969.59;;;36.90;27.98
8051;BME280;4068;42.158;24.732;2022-08-19T12:52:09;98986.34;;;37.17;27.73
8051;BME280;4068;42.158;24.732;2022-08-19T12:54:36;98970.41;;;37.13;27.78
8051;BME280;4068;42.158;24.732;2022-08-19T12:57:06;98970.63;;;37.17;27.80
8051;BME280;4068;42.158;24.732;2022-08-19T12:59:33;98987.75;;;37.51;27.77
8051;BME280;4068;42.158;24.732;2022-08-19T13:01:59;98979.66;;;37.54;27.81
8051;BME280;4068;42.158;24.732;2022-08-19T13:04:25;98976.59;;;37.64;27.69
8051;BME280;4068;42.158;24.732;2022-08-19T13:06:50;98975.06;;;37.81;27.54
8051;BME280;4068;42.158;24.732;2022-08-19T13:09:16;98974.50;;;37.70;27.09
8051;BME280;4068;42.158;24.732;2022-08-19T13:11:41;98971.66;;;37.53;27.55
8051;BME280;4068;42.158;24.732;2022-08-19T13:14:08;98970.56;;;37.62;27.53
8051;BME280;4068;42.158;24.732;2022-08-19T13:16:36;98971.00;;;37.78;26.91
8051;BME280;4068;42.158;24.732;2022-08-19T13:19:03;98974.06;;;38.08;27.15
8051;BME280;4068;42.158;24.732;2022-08-19T13:21:30;98970.13;;;38.09;26.77
8051;BME280;4068;42.158;24.732;2022-08-19T13:23:56;98966.22;;;38.02;27.35
8051;BME280;4068;42.158;24.732;2022-08-19T13:26:22;98969.09;;;37.96;27.57
8051;BME280;4068;42.158;24.732;2022-08-19T13:28:48;98953.94;;;37.85;27.27